sensor_id;sensor_type;location;lat;lon;timestamp;P1;durP1;ratioP1;P2;durP2;ratioP2
1785;SDS011;890;48.158;11.540;2023-04-03T00:01:05;12.13;;;10.93;;
1785;SDS011;890;48.158;11.540;2023-04-03T00:03:30;11.50;;;10.30;;
1785;SDS011;890;48.158;11.540;2023-04-03T00:05:56;13.33;;;11.30;;
1785;SDS011;890;48.158;11.540;2023-04-03T00:08:22;11.57;;;10.37;;
1785;SDS011;890;48.158;11.540;2023-04-03T00:10:47;11.47;;;10.27;;
1785;SDS011;890;48.158;11.540;2023-04-03T00:13:13;11.43;;;10.23;;
1785;SDS011;890;48.158;11.540;2023-04-03T00:15:39;11.10;;;10.00;;
1785;SDS011;890;48.158;11.540;2023-04-03T00:18:06;10.67;;;9.67;;
1785;SDS011;890;48.158;11.540;2023-04-03T00:20:32;10.83;;;9.80;;
1785;SDS011;890;48.158;11.540;2023-04-03T00:22:58;9.50;;;8.70;;
1785;SDS011;890;48.158;11.540;2023-04-03T00:25:24;10.37;;;9.40;;
1785;SDS011;890;48.158;11.540;2023-04-03T00:27:50;12.17;;;9.37;;
1785;SDS011;890;48.158;11.540;2023-04-03T00:30:16;11.57;;;10.00;;
1785;SDS011;890;48.158;11.540;2023-04-03T00:32:43;9.93;;;8.80;;
1785;SDS011;890;48.158;11.540;2023-04-03T00:35:09;11.13;;;10.03;;
1785;SDS011;890;48.158;11.540;2023-04-03T00:37:35;10.67;;;9.53;;
1785;SDS011;890;48.158;11.540;2023-04-03T00:40:01;11.40;;;10.20;;
1785;SDS011;890;48.158;11.540;2023-04-03T00:42:27;11.27;;;10.20;;
1785;SDS011;890;48.158;11.540;2023-04-03T00:47:21;11.40;;;10.30;;
1785;SDS011;890;48.158;11.540;2023-04-03T00:49:47;10.30;;;9.30;;
1785;SDS011;890;48.158;11.540;2023-04-03T00:52:16;11.30;;;10.30;;
1785;SDS011;890;48.158;11.540;2023-04-03T00:54:44;11.93;;;10.50;;
1785;SDS011;890;48.158;11.540;2023-04-03T00:57:12;11.30;;;10.10;;
1785;SDS011;890;48.158;11.540;2023-04-03T00:59:39;11.07;;;9.97;;
1785;SDS011;890;48.158;11.540;2023-04-03T01:02:09;12.83;;;9.97;;
1785;SDS011;890;48.158;11.540;2023-04-03T01:04:37;11.00;;;9.90;;
1785;SDS011;890;48.158;11.540;2023-04-03T01:07:09;11.43;;;10.20;;
1785;SDS011;890;48.158;11.540;2023-04-03T01:09:37;11.20;;;9.57;;
1785;SDS011;890;48.158;11.540;2023-04-03T01:12:25;10.73;;;9.67;;
1785;SDS011;890;48.158;11.540;2023-04-03T01:14:50;10.33;;;9.20;;
1785;SDS011;890;48.158;11.540;2023-04-03T01:17:31;10.30;;;9.23;;
1785;SDS011;890;48.158;11.540;2023-04-03T01:22:48;12.13;;;10.00;;
1785;SDS011;890;48.158;11.540;2023-04-03T01:28:05;11.03;;;9.93;;
1785;SDS011;890;48.158;11.540;2023-04-03T01:30:36;10.23;;;9.23;;
1785;SDS011;890;48.158;11.540;2023-04-03T01:33:08;8.80;;;7.90;;
1785;SDS011;890;48.158;11.540;2023-04-03T01:35:34;10.30;;;9.30;;
1785;SDS011;890;48.158;11.540;2023-04-03T01:38:00;9.93;;;8.93;;
1785;SDS011;890;48.158;11.540;2023-04-03T01:40:25;10.27;;;9.33;;
1785;SDS011;890;48.158;11.540;2023-04-03T01:42:51;10.33;;;9.33;;
1785;SDS011;890;48.158;11.540;2023-04-03T01:45:17;10.10;;;9.10;;
1785;SDS011;890;48.158;11.540;2023-04-03T01:47:42;9.80;;;8.80;;
1785;SDS011;890;48.158;11.540;2023-04-03T01:50:08;9.47;;;8.50;;
1785;SDS011;890;48.158;11.540;2023-04-03T01:52:34;10.13;;;9.13;;
1785;SDS011;890;48.158;11.540;2023-04-03T01:54:59;9.40;;;8.53;;
1785;SDS011;890;48.158;11.540;2023-04-03T01:57:25;9.63;;;8.73;;
1785;SDS011;890;48.158;11.540;2023-04-03T01:59:50;8.90;;;8.03;;
1785;SDS011;890;48.158;11.540;2023-04-03T02:02:16;9.70;;;8.80;;
1785;SDS011;890;48.158;11.540;2023-04-03T02:04:42;8.87;;;7.97;;
1785;SDS011;890;48.158;11.540;2023-04-03T02:07:07;10.50;;;8.70;;
1785;SDS011;890;48.158;11.540;2023-04-03T02:09:33;9.63;;;8.60;;
1785;SDS011;890;48.158;11.540;2023-04-03T02:11:58;9.13;;;8.27;;
1785;SDS011;890;48.158;11.540;2023-04-03T02:14:24;8.27;;;7.47;;
1785;SDS011;890;48.158;11.540;2023-04-03T02:16:52;8.47;;;7.67;;
1785;SDS011;890;48.158;11.540;2023-04-03T02:19:18;7.60;;;6.90;;
1785;SDS011;890;48.158;11.540;2023-04-03T02:21:43;8.47;;;7.70;;
1785;SDS011;890;48.158;11.540;2023-04-03T02:24:09;8.90;;;8.10;;
1785;SDS011;890;48.158;11.540;2023-04-03T02:26:35;8.77;;;7.90;;
1785;SDS011;890;48.158;11.540;2023-04-03T02:29:00;9.07;;;8.17;;
1785;SDS011;890;48.158;11.540;2023-04-03T02:31:26;8.13;;;7.43;;
1785;SDS011;890;48.158;11.540;2023-04-03T02:33:51;8.30;;;7.50;;
1785;SDS011;890;48.158;11.540;2023-04-03T02:36:17;8.40;;;7.60;;
1785;SDS011;890;48.158;11.540;2023-04-03T02:38:43;8.77;;;7.40;;
1785;SDS011;890;48.158;11.540;2023-04-03T02:41:09;8.00;;;7.20;;
1785;SDS011;890;48.158;11.540;2023-04-03T02:43:36;9.03;;;8.13;;
1785;SDS011;890;48.158;11.540;2023-04-03T02:46:02;9.80;;;8.80;;
1785;SDS011;890;48.158;11.540;2023-04-03T02:48:29;8.13;;;7.30;;
1785;SDS011;890;48.158;11.540;2023-04-03T02:50:55;8.90;;;8.10;;
1785;SDS011;890;48.158;11.540;2023-04-03T02:53:20;7.23;;;6.53;;
1785;SDS011;890;48.158;11.540;2023-04-03T02:55:46;7.43;;;6.73;;
1785;SDS011;890;48.158;11.540;2023-04-03T02:58:12;6.90;;;6.30;;
1785;SDS011;890;48.158;11.540;2023-04-03T03:00:37;7.57;;;6.80;;
1785;SDS011;890;48.158;11.540;2023-04-03T03:03:03;6.80;;;6.10;;
1785;SDS011;890;48.158;11.540;2023-04-03T03:05:29;6.97;;;6.37;;
1785;SDS011;890;48.158;11.540;2023-04-03T03:07:55;7.87;;;7.13;;
1785;SDS011;890;48.158;11.540;2023-04-03T03:10:21;8.13;;;6.80;;
1785;SDS011;890;48.158;11.540;2023-04-03T03:12:47;7.13;;;6.50;;
1785;SDS011;890;48.158;11.540;2023-04-03T03:15:13;6.60;;;6.00;;
1785;SDS011;890;48.158;11.540;2023-04-03T03:17:40;6.63;;;6.03;;
1785;SDS011;890;48.158;11.540;2023-04-03T03:20:06;6.70;;;6.00;;
1785;SDS011;890;48.158;11.540;2023-04-03T03:22:32;8.30;;;6.20;;
1785;SDS011;890;48.158;11.540;2023-04-03T03:24:58;6.90;;;6.30;;
1785;SDS011;890;48.158;11.540;2023-04-03T03:27:24;7.10;;;6.40;;
1785;SDS011;890;48.158;11.540;2023-04-03T03:29:49;6.80;;;6.20;;
1785;SDS011;890;48.158;11.540;2023-04-03T03:32:15;6.50;;;5.90;;
1785;SDS011;890;48.158;11.540;2023-04-03T03:34:41;5.90;;;5.40;;
1785;SDS011;890;48.158;11.540;2023-04-03T03:37:06;6.20;;;5.50;;
1785;SDS011;890;48.158;11.540;2023-04-03T03:39:32;7.53;;;5.47;;
1785;SDS011;890;48.158;11.540;2023-04-03T03:41:57;5.70;;;5.23;;
1785;SDS011;890;48.158;11.540;2023-04-03T03:44:23;5.67;;;5.17;;
1785;SDS011;890;48.158;11.540;2023-04-03T03:46:49;5.90;;;5.37;;
1785;SDS011;890;48.158;11.540;2023-04-03T03:49:14;6.23;;;5.63;;
1785;SDS011;890;48.158;11.540;2023-04-03T03:51:40;5.80;;;5.30;;
1785;SDS011;890;48.158;11.540;2023-04-03T03:54:06;6.40;;;5.80;;
1785;SDS011;890;48.158;11.540;2023-04-03T03:56:32;6.40;;;5.73;;
1785;SDS011;890;48.158;11.540;2023-04-03T03:58:58;5.73;;;5.20;;
1785;SDS011;890;48.158;11.540;2023-04-03T04:01:24;6.47;;;5.93;;
1785;SDS011;890;48.158;11.540;2023-04-03T04:03:50;5.37;;;4.97;;
1785;SDS011;890;48.158;11.540;2023-04-03T04:06:16;6.17;;;5.57;;
1785;SDS011;890;48.158;11.540;2023-04-03T04:08:42;5.60;;;5.10;;
1785;SDS011;890;48.158;11.540;2023-04-03T04:11:07;6.00;;;5.50;;
1785;SDS011;890;48.158;11.540;2023-04-03T04:13:34;6.30;;;5.70;;
1785;SDS011;890;48.158;11.540;2023-04-03T04:15:59;6.50;;;5.90;;
1785;SDS011;890;48.158;11.540;2023-04-03T04:18:25;8.00;;;5.37;;
1785;SDS011;890;48.158;11.540;2023-04-03T04:20:51;6.37;;;5.77;;
1785;SDS011;890;48.158;11.540;2023-04-03T04:23:17;5.97;;;5.40;;
1785;SDS011;890;48.158;11.540;2023-04-03T04:25:46;6.37;;;5.77;;
1785;SDS011;890;48.158;11.540;2023-04-03T04:28:13;6.30;;;5.70;;
1785;SDS011;890;48.158;11.540;2023-04-03T04:30:38;5.90;;;5.43;;
1785;SDS011;890;48.158;11.540;2023-04-03T04:33:04;5.47;;;4.97;;
1785;SDS011;890;48.158;11.540;2023-04-03T04:35:30;5.90;;;5.40;;
1785;SDS011;890;48.158;11.540;2023-04-03T04:37:55;6.40;;;5.80;;
1785;SDS011;890;48.158;11.540;2023-04-03T04:40:21;5.87;;;5.33;;
1785;SDS011;890;48.158;11.540;2023-04-03T04:42:47;6.63;;;5.93;;
1785;SDS011;890;48.158;11.540;2023-04-03T04:45:13;6.33;;;5.73;;
1785;SDS011;890;48.158;11.540;2023-04-03T04:47:39;6.43;;;5.87;;
1785;SDS011;890;48.158;11.540;2023-04-03T04:50:05;6.37;;;5.77;;
1785;SDS011;890;48.158;11.540;2023-04-03T04:52:32;5.43;;;4.93;;
1785;SDS011;890;48.158;11.540;2023-04-03T04:54:57;6.00;;;5.50;;
1785;SDS011;890;48.158;11.540;2023-04-03T04:57:23;6.30;;;5.70;;
1785;SDS011;890;48.158;11.540;2023-04-03T04:59:49;7.03;;;6.33;;
1785;SDS011;890;48.158;11.540;2023-04-03T05:02:14;6.70;;;6.10;;
1785;SDS011;890;48.158;11.540;2023-04-03T05:04:40;5.93;;;5.43;;
1785;SDS011;890;48.158;11.540;2023-04-03T05:07:06;6.53;;;5.93;;
1785;SDS011;890;48.158;11.540;2023-04-03T05:09:31;7.57;;;5.83;;
1785;SDS011;890;48.158;11.540;2023-04-03T05:11:57;8.63;;;5.90;;
1785;SDS011;890;48.158;11.540;2023-04-03T05:14:22;7.30;;;6.60;;
1785;SDS011;890;48.158;11.540;2023-04-03T05:16:48;6.73;;;6.13;;
1785;SDS011;890;48.158;11.540;2023-04-03T05:19:17;7.10;;;5.90;;
1785;SDS011;890;48.158;11.540;2023-04-03T05:21:43;6.13;;;5.53;;
1785;SDS011;890;48.158;11.540;2023-04-03T05:24:09;5.57;;;5.07;;
1785;SDS011;890;48.158;11.540;2023-04-03T05:26:35;5.87;;;5.20;;
1785;SDS011;890;48.158;11.540;2023-04-03T05:29:00;6.00;;;5.50;;
1785;SDS011;890;48.158;11.540;2023-04-03T05:31:26;6.77;;;6.10;;
1785;SDS011;890;48.158;11.540;2023-04-03T05:33:54;6.43;;;5.83;;
1785;SDS011;890;48.158;11.540;2023-04-03T05:36:20;6.00;;;5.40;;
1785;SDS011;890;48.158;11.540;2023-04-03T05:38:45;7.00;;;6.30;;
1785;SDS011;890;48.158;11.540;2023-04-03T05:41:11;6.83;;;6.23;;
1785;SDS011;890;48.158;11.540;2023-04-03T05:43:37;6.33;;;5.73;;
1785;SDS011;890;48.158;11.540;2023-04-03T05:46:03;6.07;;;5.53;;
1785;SDS011;890;48.158;11.540;2023-04-03T05:48:33;6.87;;;6.17;;
1785;SDS011;890;48.158;11.540;2023-04-03T05:51:00;8.07;;;6.97;;
1785;SDS011;890;48.158;11.540;2023-04-03T05:53:27;6.97;;;6.37;;
1785;SDS011;890;48.158;11.540;2023-04-03T05:55:54;7.77;;;7.00;;
1785;SDS011;890;48.158;11.540;2023-04-03T05:58:20;7.47;;;6.60;;
1785;SDS011;890;48.158;11.540;2023-04-03T06:00:46;6.40;;;5.90;;
1785;SDS011;890;48.158;11.540;2023-04-03T06:03:11;7.33;;;6.60;;
1785;SDS011;890;48.158;11.540;2023-04-03T06:05:37;6.17;;;5.57;;
1785;SDS011;890;48.158;11.540;2023-04-03T06:08:03;7.47;;;6.77;;
1785;SDS011;890;48.158;11.540;2023-04-03T06:10:29;6.90;;;6.17;;
1785;SDS011;890;48.158;11.540;2023-04-03T06:12:54;7.50;;;6.80;;
1785;SDS011;890;48.158;11.540;2023-04-03T06:15:20;9.40;;;6.87;;
1785;SDS011;890;48.158;11.540;2023-04-03T06:17:46;6.70;;;5.93;;
1785;SDS011;890;48.158;11.540;2023-04-03T06:20:12;7.50;;;6.10;;
1785;SDS011;890;48.158;11.540;2023-04-03T06:22:38;7.97;;;6.90;;
1785;SDS011;890;48.158;11.540;2023-04-03T06:25:04;6.90;;;6.30;;
1785;SDS011;890;48.158;11.540;2023-04-03T06:27:30;6.50;;;5.83;;
1785;SDS011;890;48.158;11.540;2023-04-03T06:29:55;7.10;;;6.40;;
1785;SDS011;890;48.158;11.540;2023-04-03T06:32:21;6.60;;;6.00;;
1785;SDS011;890;48.158;11.540;2023-04-03T06:34:47;6.63;;;6.07;;
1785;SDS011;890;48.158;11.540;2023-04-03T06:37:16;6.33;;;5.67;;
1785;SDS011;890;48.158;11.540;2023-04-03T06:39:43;6.30;;;5.70;;
1785;SDS011;890;48.158;11.540;2023-04-03T06:42:08;5.60;;;5.10;;
1785;SDS011;890;48.158;11.540;2023-04-03T06:44:34;6.70;;;6.10;;
1785;SDS011;890;48.158;11.540;2023-04-03T06:47:00;10.13;;;6.20;;
1785;SDS011;890;48.158;11.540;2023-04-03T06:49:26;6.80;;;6.13;;
1785;SDS011;890;48.158;11.540;2023-04-03T06:51:51;6.80;;;6.00;;
1785;SDS011;890;48.158;11.540;2023-04-03T06:54:17;6.37;;;5.77;;
1785;SDS011;890;48.158;11.540;2023-04-03T06:56:43;6.80;;;6.07;;
1785;SDS011;890;48.158;11.540;2023-04-03T06:59:09;6.80;;;5.93;;
1785;SDS011;890;48.158;11.540;2023-04-03T07:01:37;6.53;;;5.93;;
1785;SDS011;890;48.158;11.540;2023-04-03T07:04:03;7.13;;;6.00;;
1785;SDS011;890;48.158;11.540;2023-04-03T07:06:29;6.90;;;5.40;;
1785;SDS011;890;48.158;11.540;2023-04-03T07:08:56;7.10;;;6.00;;
1785;SDS011;890;48.158;11.540;2023-04-03T07:11:21;6.20;;;5.60;;
1785;SDS011;890;48.158;11.540;2023-04-03T07:13:48;5.97;;;5.17;;
1785;SDS011;890;48.158;11.540;2023-04-03T07:16:13;5.97;;;5.40;;
1785;SDS011;890;48.158;11.540;2023-04-03T07:18:39;6.03;;;5.43;;
1785;SDS011;890;48.158;11.540;2023-04-03T07:21:05;6.70;;;6.00;;
1785;SDS011;890;48.158;11.540;2023-04-03T07:23:31;6.33;;;5.70;;
1785;SDS011;890;48.158;11.540;2023-04-03T07:25:56;6.50;;;5.90;;
1785;SDS011;890;48.158;11.540;2023-04-03T07:28:22;8.40;;;5.83;;
1785;SDS011;890;48.158;11.540;2023-04-03T07:30:50;6.10;;;5.37;;
1785;SDS011;890;48.158;11.540;2023-04-03T07:33:24;6.17;;;5.67;;
1785;SDS011;890;48.158;11.540;2023-04-03T07:35:50;6.13;;;5.53;;
1785;SDS011;890;48.158;11.540;2023-04-03T07:38:16;6.93;;;6.23;;
1785;SDS011;890;48.158;11.540;2023-04-03T07:40:45;6.40;;;5.80;;
1785;SDS011;890;48.158;11.540;2023-04-03T07:43:12;6.33;;;5.70;;
1785;SDS011;890;48.158;11.540;2023-04-03T07:45:38;6.43;;;5.83;;
1785;SDS011;890;48.158;11.540;2023-04-03T07:48:03;6.97;;;6.17;;
1785;SDS011;890;48.158;11.540;2023-04-03T07:50:29;7.40;;;6.00;;
1785;SDS011;890;48.158;11.540;2023-04-03T07:52:56;6.67;;;5.97;;
1785;SDS011;890;48.158;11.540;2023-04-03T07:55:22;12.93;;;6.50;;
1785;SDS011;890;48.158;11.540;2023-04-03T07:57:48;6.50;;;5.90;;
1785;SDS011;890;48.158;11.540;2023-04-03T08:00:14;7.10;;;6.40;;
1785;SDS011;890;48.158;11.540;2023-04-03T08:02:42;6.97;;;6.27;;
1785;SDS011;890;48.158;11.540;2023-04-03T08:05:09;6.97;;;6.37;;
1785;SDS011;890;48.158;11.540;2023-04-03T08:07:36;8.00;;;6.90;;
1785;SDS011;890;48.158;11.540;2023-04-03T08:10:02;8.07;;;7.33;;
1785;SDS011;890;48.158;11.540;2023-04-03T08:12:28;7.33;;;6.73;;
1785;SDS011;890;48.158;11.540;2023-04-03T08:14:54;8.17;;;7.37;;
1785;SDS011;890;48.158;11.540;2023-04-03T08:17:20;8.50;;;7.70;;
1785;SDS011;890;48.158;11.540;2023-04-03T08:19:46;8.70;;;7.83;;
1785;SDS011;890;48.158;11.540;2023-04-03T08:22:12;8.40;;;7.63;;
1785;SDS011;890;48.158;11.540;2023-04-03T08:24:37;8.77;;;7.97;;
1785;SDS011;890;48.158;11.540;2023-04-03T08:27:03;8.73;;;7.83;;
1785;SDS011;890;48.158;11.540;2023-04-03T08:29:29;10.67;;;7.53;;
1785;SDS011;890;48.158;11.540;2023-04-03T08:31:56;8.73;;;7.83;;
1785;SDS011;890;48.158;11.540;2023-04-03T08:34:22;8.13;;;7.33;;
1785;SDS011;890;48.158;11.540;2023-04-03T08:36:47;8.63;;;7.70;;
1785;SDS011;890;48.158;11.540;2023-04-03T08:39:13;9.00;;;8.10;;
1785;SDS011;890;48.158;11.540;2023-04-03T08:41:39;8.70;;;7.80;;
1785;SDS011;890;48.158;11.540;2023-04-03T08:49:35;8.67;;;7.87;;
1785;SDS011;890;48.158;11.540;2023-04-03T08:52:12;10.10;;;9.10;;
1785;SDS011;890;48.158;11.540;2023-04-03T08:54:48;10.67;;;8.80;;
1785;SDS011;890;48.158;11.540;2023-04-03T08:57:16;7.87;;;7.17;;
1785;SDS011;890;48.158;11.540;2023-04-03T08:59:46;7.83;;;7.13;;
1785;SDS011;890;48.158;11.540;2023-04-03T09:02:23;8.00;;;7.30;;
1785;SDS011;890;48.158;11.540;2023-04-03T09:04:57;7.97;;;7.17;;
1785;SDS011;890;48.158;11.540;2023-04-03T09:08:24;8.00;;;7.30;;
1785;SDS011;890;48.158;11.540;2023-04-03T09:10:24;8.27;;;7.50;;
1785;SDS011;890;48.158;11.540;2023-04-03T09:12:58;9.20;;;7.50;;
1785;SDS011;890;48.158;11.540;2023-04-03T09:15:30;8.60;;;7.80;;
1785;SDS011;890;48.158;11.540;2023-04-03T09:23:03;8.00;;;7.20;;
1785;SDS011;890;48.158;11.540;2023-04-03T09:25:52;8.20;;;7.30;;
1785;SDS011;890;48.158;11.540;2023-04-03T09:28:40;8.07;;;7.27;;
1785;SDS011;890;48.158;11.540;2023-04-03T09:31:20;8.50;;;7.60;;
1785;SDS011;890;48.158;11.540;2023-04-03T09:33:47;8.50;;;7.63;;
1785;SDS011;890;48.158;11.540;2023-04-03T09:36:36;7.90;;;7.20;;
1785;SDS011;890;48.158;11.540;2023-04-03T09:39:07;9.53;;;6.87;;
1785;SDS011;890;48.158;11.540;2023-04-03T09:41:41;6.83;;;6.13;;
1785;SDS011;890;48.158;11.540;2023-04-03T09:44:21;8.60;;;6.43;;
1785;SDS011;890;48.158;11.540;2023-04-03T09:46:49;8.03;;;7.23;;
1785;SDS011;890;48.158;11.540;2023-04-03T09:49:15;10.70;;;7.53;;
1785;SDS011;890;48.158;11.540;2023-04-03T09:51:42;7.50;;;6.80;;
1785;SDS011;890;48.158;11.540;2023-04-03T09:56:59;8.53;;;7.63;;
1785;SDS011;890;48.158;11.540;2023-04-03T09:59:31;7.93;;;7.23;;
1785;SDS011;890;48.158;11.540;2023-04-03T10:02:02;9.23;;;7.23;;
1785;SDS011;890;48.158;11.540;2023-04-03T10:04:45;8.20;;;7.40;;
1785;SDS011;890;48.158;11.540;2023-04-03T10:07:25;7.33;;;6.73;;
1785;SDS011;890;48.158;11.540;2023-04-03T10:10:14;8.13;;;7.33;;
1785;SDS011;890;48.158;11.540;2023-04-03T10:12:42;8.30;;;7.60;;
1785;SDS011;890;48.158;11.540;2023-04-03T10:15:10;8.90;;;7.77;;
1785;SDS011;890;48.158;11.540;2023-04-03T10:20:39;8.33;;;7.53;;
1785;SDS011;890;48.158;11.540;2023-04-03T10:23:21;8.87;;;8.00;;
1785;SDS011;890;48.158;11.540;2023-04-03T10:28:34;8.67;;;7.87;;
1785;SDS011;890;48.158;11.540;2023-04-03T10:31:55;8.33;;;7.53;;
1785;SDS011;890;48.158;11.540;2023-04-03T10:36:59;7.40;;;6.80;;
1785;SDS011;890;48.158;11.540;2023-04-03T10:39:51;7.60;;;7.00;;
1785;SDS011;890;48.158;11.540;2023-04-03T10:45:26;6.57;;;5.97;;
1785;SDS011;890;48.158;11.540;2023-04-03T10:57:08;9.47;;;4.97;;
1785;SDS011;890;48.158;11.540;2023-04-03T11:02:27;6.47;;;5.40;;
1785;SDS011;890;48.158;11.540;2023-04-03T11:05:07;6.63;;;5.20;;
1785;SDS011;890;48.158;11.540;2023-04-03T11:07:48;6.20;;;5.53;;
1785;SDS011;890;48.158;11.540;2023-04-03T11:10:21;6.93;;;5.87;;
1785;SDS011;890;48.158;11.540;2023-04-03T11:12:58;5.77;;;5.17;;
1785;SDS011;890;48.158;11.540;2023-04-03T11:15:34;5.50;;;4.97;;
1785;SDS011;890;48.158;11.540;2023-04-03T11:18:02;5.90;;;5.30;;
1785;SDS011;890;48.158;11.540;2023-04-03T11:21:00;6.63;;;5.40;;
1785;SDS011;890;48.158;11.540;2023-04-03T11:23:36;5.90;;;5.37;;
1785;SDS011;890;48.158;11.540;2023-04-03T11:26:11;6.10;;;5.47;;
1785;SDS011;890;48.158;11.540;2023-04-03T11:28:39;6.90;;;6.10;;
1785;SDS011;890;48.158;11.540;2023-04-03T11:36:24;5.90;;;4.93;;
1785;SDS011;890;48.158;11.540;2023-04-03T11:38:57;6.23;;;5.00;;
1785;SDS011;890;48.158;11.540;2023-04-03T11:41:43;5.77;;;4.70;;
1785;SDS011;890;48.158;11.540;2023-04-03T11:44:28;5.53;;;5.03;;
1785;SDS011;890;48.158;11.540;2023-04-03T11:47:05;5.90;;;5.30;;
1785;SDS011;890;48.158;11.540;2023-04-03T12:05:54;4.10;;;3.70;;
1785;SDS011;890;48.158;11.540;2023-04-03T12:16:05;4.27;;;2.87;;
1785;SDS011;890;48.158;11.540;2023-04-03T12:29:15;3.53;;;3.10;;
1785;SDS011;890;48.158;11.540;2023-04-03T12:40:21;3.40;;;2.50;;
1785;SDS011;890;48.158;11.540;2023-04-03T12:46:35;3.57;;;2.70;;
1785;SDS011;890;48.158;11.540;2023-04-03T12:51:09;3.40;;;2.37;;
1785;SDS011;890;48.158;11.540;2023-04-03T12:57:08;2.60;;;2.40;;
1785;SDS011;890;48.158;11.540;2023-04-03T12:59:41;2.93;;;2.70;;
1785;SDS011;890;48.158;11.540;2023-04-03T13:02:15;2.70;;;2.50;;
1785;SDS011;890;48.158;11.540;2023-04-03T13:04:46;2.57;;;2.33;;
1785;SDS011;890;48.158;11.540;2023-04-03T13:07:22;3.00;;;2.40;;
1785;SDS011;890;48.158;11.540;2023-04-03T13:09:59;4.00;;;2.80;;
1785;SDS011;890;48.158;11.540;2023-04-03T13:12:47;2.97;;;2.67;;
1785;SDS011;890;48.158;11.540;2023-04-03T13:15:18;3.40;;;2.93;;
1785;SDS011;890;48.158;11.540;2023-04-03T13:17:55;2.53;;;2.30;;
1785;SDS011;890;48.158;11.540;2023-04-03T13:22:53;3.40;;;2.80;;
1785;SDS011;890;48.158;11.540;2023-04-03T13:25:23;3.63;;;2.63;;
1785;SDS011;890;48.158;11.540;2023-04-03T13:27:51;2.53;;;2.33;;
1785;SDS011;890;48.158;11.540;2023-04-03T13:30:19;5.10;;;3.33;;
1785;SDS011;890;48.158;11.540;2023-04-03T13:32:48;3.03;;;2.73;;
1785;SDS011;890;48.158;11.540;2023-04-03T13:35:34;3.53;;;3.00;;
1785;SDS011;890;48.158;11.540;2023-04-03T13:38:04;3.10;;;2.70;;
1785;SDS011;890;48.158;11.540;2023-04-03T13:40:49;19.73;;;11.33;;
1785;SDS011;890;48.158;11.540;2023-04-03T13:43:19;4.50;;;3.40;;
1785;SDS011;890;48.158;11.540;2023-04-03T13:48:38;3.40;;;2.90;;
1785;SDS011;890;48.158;11.540;2023-04-03T13:56:30;4.03;;;3.17;;
1785;SDS011;890;48.158;11.540;2023-04-03T14:04:19;4.07;;;3.00;;
1785;SDS011;890;48.158;11.540;2023-04-03T14:06:54;2.37;;;2.17;;
1785;SDS011;890;48.158;11.540;2023-04-03T14:09:21;3.60;;;2.77;;
1785;SDS011;890;48.158;11.540;2023-04-03T14:11:48;2.83;;;2.57;;
1785;SDS011;890;48.158;11.540;2023-04-03T14:14:21;4.07;;;2.63;;
1785;SDS011;890;48.158;11.540;2023-04-03T14:16:57;4.80;;;2.90;;
1785;SDS011;890;48.158;11.540;2023-04-03T14:21:56;3.77;;;2.20;;
1785;SDS011;890;48.158;11.540;2023-04-03T14:24:22;3.00;;;2.70;;
1785;SDS011;890;48.158;11.540;2023-04-03T14:26:49;3.53;;;3.23;;
1785;SDS011;890;48.158;11.540;2023-04-03T14:29:19;3.73;;;2.83;;
1785;SDS011;890;48.158;11.540;2023-04-03T14:31:46;4.10;;;2.47;;
1785;SDS011;890;48.158;11.540;2023-04-03T14:34:14;2.80;;;2.47;;
1785;SDS011;890;48.158;11.540;2023-04-03T14:36:40;2.90;;;2.60;;
1785;SDS011;890;48.158;11.540;2023-04-03T14:39:16;2.70;;;2.40;;
1785;SDS011;890;48.158;11.540;2023-04-03T14:41:43;3.27;;;2.37;;
1785;SDS011;890;48.158;11.540;2023-04-03T14:44:09;2.87;;;2.30;;
1785;SDS011;890;48.158;11.540;2023-04-03T14:46:35;2.50;;;2.27;;
1785;SDS011;890;48.158;11.540;2023-04-03T14:49:05;3.13;;;2.63;;
1785;SDS011;890;48.158;11.540;2023-04-03T14:51:39;2.70;;;2.30;;
1785;SDS011;890;48.158;11.540;2023-04-03T14:54:05;2.07;;;1.87;;
1785;SDS011;890;48.158;11.540;2023-04-03T14:56:41;3.13;;;2.30;;
1785;SDS011;890;48.158;11.540;2023-04-03T14:59:11;5.03;;;2.30;;
1785;SDS011;890;48.158;11.540;2023-04-03T15:01:38;3.47;;;2.37;;
1785;SDS011;890;48.158;11.540;2023-04-03T15:04:10;2.17;;;1.90;;
1785;SDS011;890;48.158;11.540;2023-04-03T15:06:38;2.83;;;2.03;;
1785;SDS011;890;48.158;11.540;2023-04-03T15:09:03;3.10;;;2.40;;
1785;SDS011;890;48.158;11.540;2023-04-03T15:11:29;4.07;;;2.50;;
1785;SDS011;890;48.158;11.540;2023-04-03T15:13:54;3.40;;;2.10;;
1785;SDS011;890;48.158;11.540;2023-04-03T15:16:20;3.90;;;2.50;;
1785;SDS011;890;48.158;11.540;2023-04-03T15:18:54;3.37;;;2.60;;
1785;SDS011;890;48.158;11.540;2023-04-03T15:21:19;3.33;;;2.10;;
1785;SDS011;890;48.158;11.540;2023-04-03T15:23:45;2.73;;;2.13;;
1785;SDS011;890;48.158;11.540;2023-04-03T15:26:10;3.17;;;2.33;;
1785;SDS011;890;48.158;11.540;2023-04-03T15:28:37;2.23;;;1.90;;
1785;SDS011;890;48.158;11.540;2023-04-03T15:31:07;3.27;;;2.17;;
1785;SDS011;890;48.158;11.540;2023-04-03T15:33:34;4.33;;;2.17;;
1785;SDS011;890;48.158;11.540;2023-04-03T15:36:00;2.23;;;2.03;;
1785;SDS011;890;48.158;11.540;2023-04-03T15:38:26;1.87;;;1.73;;
1785;SDS011;890;48.158;11.540;2023-04-03T15:40:53;3.00;;;2.30;;
1785;SDS011;890;48.158;11.540;2023-04-03T15:43:19;2.50;;;2.30;;
1785;SDS011;890;48.158;11.540;2023-04-03T15:45:45;32.87;;;19.53;;
1785;SDS011;890;48.158;11.540;2023-04-03T15:48:11;4.33;;;2.60;;
1785;SDS011;890;48.158;11.540;2023-04-03T15:50:37;2.23;;;2.03;;
1785;SDS011;890;48.158;11.540;2023-04-03T15:53:04;2.90;;;2.30;;
1785;SDS011;890;48.158;11.540;2023-04-03T15:55:31;2.63;;;2.10;;
1785;SDS011;890;48.158;11.540;2023-04-03T15:57:58;2.93;;;1.87;;
1785;SDS011;890;48.158;11.540;2023-04-03T16:00:25;2.67;;;2.47;;
1785;SDS011;890;48.158;11.540;2023-04-03T16:02:52;2.20;;;2.00;;
1785;SDS011;890;48.158;11.540;2023-04-03T16:05:22;2.30;;;2.03;;
1785;SDS011;890;48.158;11.540;2023-04-03T16:07:48;4.20;;;2.37;;
1785;SDS011;890;48.158;11.540;2023-04-03T16:10:14;3.43;;;2.33;;
1785;SDS011;890;48.158;11.540;2023-04-03T16:12:41;3.50;;;3.20;;
1785;SDS011;890;48.158;11.540;2023-04-03T16:15:07;2.97;;;2.67;;
1785;SDS011;890;48.158;11.540;2023-04-03T16:17:33;2.63;;;2.30;;
1785;SDS011;890;48.158;11.540;2023-04-03T16:20:00;3.20;;;2.43;;
1785;SDS011;890;48.158;11.540;2023-04-03T16:22:28;3.53;;;2.57;;
1785;SDS011;890;48.158;11.540;2023-04-03T16:24:54;2.40;;;1.93;;
1785;SDS011;890;48.158;11.540;2023-04-03T16:27:20;3.37;;;2.93;;
1785;SDS011;890;48.158;11.540;2023-04-03T16:29:46;5.33;;;2.43;;
1785;SDS011;890;48.158;11.540;2023-04-03T16:32:12;3.60;;;2.40;;
1785;SDS011;890;48.158;11.540;2023-04-03T16:34:38;2.30;;;2.10;;
1785;SDS011;890;48.158;11.540;2023-04-03T16:37:05;4.47;;;2.70;;
1785;SDS011;890;48.158;11.540;2023-04-03T16:39:33;3.07;;;2.20;;
1785;SDS011;890;48.158;11.540;2023-04-03T16:41:59;5.53;;;2.70;;
1785;SDS011;890;48.158;11.540;2023-04-03T16:44:25;2.50;;;2.13;;
1785;SDS011;890;48.158;11.540;2023-04-03T16:46:51;3.67;;;2.60;;
1785;SDS011;890;48.158;11.540;2023-04-03T16:49:16;3.63;;;2.40;;
1785;SDS011;890;48.158;11.540;2023-04-03T16:51:42;2.80;;;2.40;;
1785;SDS011;890;48.158;11.540;2023-04-03T16:54:08;2.83;;;2.50;;
1785;SDS011;890;48.158;11.540;2023-04-03T16:56:35;4.10;;;2.40;;
1785;SDS011;890;48.158;11.540;2023-04-03T16:59:01;3.50;;;2.80;;
1785;SDS011;890;48.158;11.540;2023-04-03T17:01:27;3.63;;;2.53;;
1785;SDS011;890;48.158;11.540;2023-04-03T17:03:52;2.70;;;2.50;;
1785;SDS011;890;48.158;11.540;2023-04-03T17:06:19;2.77;;;2.50;;
1785;SDS011;890;48.158;11.540;2023-04-03T17:08:48;2.93;;;2.20;;
1785;SDS011;890;48.158;11.540;2023-04-03T17:11:16;3.60;;;2.30;;
1785;SDS011;890;48.158;11.540;2023-04-03T17:13:42;5.23;;;2.40;;
1785;SDS011;890;48.158;11.540;2023-04-03T17:16:09;3.87;;;2.70;;
1785;SDS011;890;48.158;11.540;2023-04-03T17:18:38;3.37;;;1.97;;
1785;SDS011;890;48.158;11.540;2023-04-03T17:21:04;3.27;;;2.30;;